الصفحة الرئيسية
METAR-TAF:

METAR-TAF

مطار :

Municipal_Airport

سوكورو, نيومكسيكو, الولايات المتحدة

دائرة عرض: 34-01N, خط طول: 106-54W, ارتفاع: 1478 متر

مراقبة الطقس الحالي

تاريخ ووقت الإصدار 18 دقيقة قبل الساعة 04:55UTC
ريح 9 عقدة من الشمال/الشمال الغربي
درجة الحرارة 0°درجة مئوية
الرطوبة 29%
ضغط 1027 hPa
الرؤية: 16.1 كم
سماء صافية

METAR: KONM 140455Z AUTO 34009KT 10SM CLR 00/M16 A3034 RMK AO2 T00001161

زمن: 22:13 (05:13 UTC)


TAF: مفقودة

أرصاد الطقس والتوقعات من أكثر من 4000 مطار (تقارير الطقس للمطار METAR والتنبؤ بالطقس بالمطارTAF).

المحطات المتاحة هي النقط الصفراء والحمراء على الخريطة.

حرك المؤشر فوق النقطة لمعرفة اسم المحطة.

ثم انقر لمعرفة أرصاد وتوقعات الطقس.

لتغيير الخارطة: اضغط على الأزرار الخضراء مع رمز الصليب الأسود للتكبير. على الزر الأخضر مع شرطة للتصغير، أو على الأسهم الخضراء للخرائط المجاورة.


METAR-TAF: